Time;durP1;ratioP1;P1;durP2;ratioP2;P2;SDS_P1;SDS_P2;PMS_P1;PMS_P2;Temp;Humidity;BMP_temperature;BMP_pressure;BME280_temperature;BME280_humidity;BME280_pressure;Samples;Min_cycle;Max_cycle;Signal;HPM_P1;HPM_P2
2022/03/16 05:08:08;;;;;;;31.58;18.77;;;;;;;6.50;69.75;100641.75;5564019;32;184382;-85
2022/03/16 05:11:12;;;;;;;31.90;18.55;;;;;;;6.44;70.36;100642.78;5555179;32;34388;-85
2022/03/16 05:14:14;;;;;;;30.70;17.95;;;;;;;6.46;70.30;100640.97;5554125;32;34295;-85
2022/03/16 05:17:17;;;;;;;34.25;18.77;;;;;;;6.51;70.20;100635.56;5549968;32;34174;-86
2022/03/16 05:20:22;;;;;;;32.78;18.45;;;;;;;6.57;70.25;100640.66;5549820;32;35009;-90
2022/03/16 05:23:24;;;;;;;30.15;18.80;;;;;;;6.60;70.42;100651.97;5552821;32;33435;-90
2022/03/16 05:26:27;;;;;;;36.00;18.75;;;;;;;6.69;69.78;100648.19;5554319;32;33736;-90
2022/03/16 05:29:30;;;;;;;28.98;17.83;;;;;;;6.68;70.12;100648.28;5560379;32;34010;-89
2022/03/16 05:32:33;;;;;;;28.27;18.37;;;;;;;6.75;70.08;100644.53;5553129;32;35216;-86
2022/03/16 05:35:36;;;;;;;32.22;19.50;;;;;;;6.75;70.44;100655.09;5555923;32;34105;-85
2022/03/16 05:38:39;;;;;;;31.40;18.83;;;;;;;6.80;70.45;100663.72;5550217;32;34167;-86
2022/03/16 05:41:42;;;;;;;42.92;20.27;;;;;;;6.95;73.35;100678.22;5545808;32;34601;-85
2022/03/16 05:44:45;;;;;;;33.13;19.37;;;;;;;6.90;75.70;100688.06;5545432;32;34595;-85
2022/03/16 05:47:48;;;;;;;33.53;19.87;;;;;;;6.80;78.76;100695.38;5544660;32;34321;-86
2022/03/16 05:51:09;;;;;;;29.85;20.20;;;;;;;6.72;80.56;100695.59;5545349;32;34130;-86
2022/03/16 05:54:12;;;;;;;32.47;20.83;;;;;;;6.72;82.06;100705.25;5545279;32;34093;-86
2022/03/16 05:57:15;;;;;;;35.95;21.73;;;;;;;6.49;85.25;100712.03;5545587;32;34456;-86
2022/03/16 06:00:20;;;;;;;34.20;21.83;;;;;;;6.27;89.56;100717.88;5545922;32;34153;-86
2022/03/16 06:03:23;;;;;;;33.75;20.30;;;;;;;6.24;88.49;100720.59;5545864;32;34133;-85
2022/03/16 06:06:26;;;;;;;34.97;21.30;;;;;;;6.24;89.88;100717.09;5546230;32;34019;-86
2022/03/16 06:09:29;;;;;;;33.72;21.08;;;;;;;6.27;88.89;100720.53;5545649;32;34619;-86
2022/03/16 06:12:35;;;;;;;35.88;21.80;;;;;;;6.18;89.40;100711.09;5535887;32;33462;-86
2022/03/16 06:15:41;;;;;;;43.28;23.15;;;;;;;6.20;90.41;100721.59;5536050;32;34612;-86
2022/03/16 06:18:43;;;;;;;41.50;23.40;;;;;;;6.04;92.85;100726.38;5533448;32;34134;-85
2022/03/16 06:21:47;;;;;;;39.67;23.12;;;;;;;5.84;90.72;100719.78;5531438;32;33800;-85
2022/03/16 06:24:49;;;;;;;40.12;22.98;;;;;;;5.74;92.97;100727.06;5537660;32;34381;-85
2022/03/16 06:27:53;;;;;;;41.05;23.65;;;;;;;5.65;92.53;100724.66;5541167;32;34767;-85
2022/03/16 06:30:55;;;;;;;39.78;24.50;;;;;;;5.67;94.04;100728.09;5543239;32;35154;-85
2022/03/16 06:34:03;;;;;;;39.05;22.33;;;;;;;5.72;94.87;100743.78;5534560;32;35214;-86
2022/03/16 06:37:05;;;;;;;40.50;22.77;;;;;;;5.78;95.36;100739.25;5530504;32;33761;-85
2022/03/16 06:40:13;;;;;;;35.58;21.52;;;;;;;5.66;94.49;100735.16;5523528;32;34002;-85
2022/03/16 06:43:16;;;;;;;41.35;22.73;;;;;;;5.66;94.14;100736.91;5526544;32;34128;-84
2022/03/16 06:46:19;;;;;;;34.72;21.05;;;;;;;5.60;93.74;100745.81;5519655;32;33911;-84
2022/03/16 06:49:22;;;;;;;33.53;20.85;;;;;;;5.77;93.28;100739.28;5515043;32;34207;-84
2022/03/16 06:52:24;;;;;;;33.10;21.10;;;;;;;5.85;91.30;100733.84;5527218;32;34892;-85
2022/03/16 06:55:27;;;;;;;31.95;21.23;;;;;;;5.65;90.34;100741.28;5529197;32;33669;-84
2022/03/16 06:58:31;;;;;;;38.75;22.58;;;;;;;5.71;91.73;100750.81;5543425;32;34996;-87
2022/03/16 07:01:34;;;;;;;38.65;23.35;;;;;;;5.68;92.09;100747.41;5542658;32;32847;-84
2022/03/16 07:04:37;;;;;;;36.22;21.90;;;;;;;5.32;91.68;100735.91;5542868;32;34284;-84
2022/03/16 07:07:40;;;;;;;35.30;22.48;;;;;;;5.35;91.08;100746.38;5533070;32;34798;-85
2022/03/16 07:10:44;;;;;;;35.13;21.25;;;;;;;5.18;91.30;100744.09;5523683;32;34461;-84
2022/03/16 07:14:31;;;;;;;33.80;22.55;;;;;;;5.37;92.16;100747.19;5527154;32;34018;-85
2022/03/16 07:17:10;;;;;;;33.92;21.37;;;;;;;5.26;92.52;100744.81;5525448;32;34502;-85
2022/03/16 07:20:13;;;;;;;31.52;20.73;;;;;;;5.13;92.61;100759.97;5522611;32;33820;-83
2022/03/16 07:23:18;;;;;;;31.05;20.17;;;;;;;5.30;92.48;100768.41;5527971;32;34100;-83
2022/03/16 07:26:20;;;;;;;33.05;21.75;;;;;;;5.34;91.70;100770.09;5533965;32;34171;-83
2022/03/16 07:29:23;;;;;;;31.40;20.83;;;;;;;5.03;93.35;100768.09;5531180;32;34518;-84
2022/03/16 07:32:26;;;;;;;32.22;20.88;;;;;;;4.84;94.25;100768.47;5533856;32;34258;-83
2022/03/16 07:35:29;;;;;;;35.13;21.50;;;;;;;4.72;94.87;100764.28;5521622;32;34032;-83
2022/03/16 07:38:33;;;;;;;31.75;20.65;;;;;;;4.75;94.86;100760.75;5527947;32;33937;-84
2022/03/16 07:41:36;;;;;;;32.17;21.85;;;;;;;4.96;94.23;100784.00;5527337;32;34596;-85
2022/03/16 07:44:39;;;;;;;34.83;20.77;;;;;;;4.82;95.76;100779.00;5531156;32;34191;-84
2022/03/16 07:47:42;;;;;;;33.17;22.00;;;;;;;4.65;95.83;100786.34;5533700;32;33466;-84
2022/03/16 07:50:45;;;;;;;39.78;23.08;;;;;;;4.44;95.90;100791.09;5521913;32;34356;-84
2022/03/16 07:53:48;;;;;;;37.72;22.37;;;;;;;4.62;97.79;100794.28;5533058;32;34061;-84
2022/03/16 07:56:50;;;;;;;36.47;22.60;;;;;;;4.61;97.11;100787.28;5527571;32;33821;-83
2022/03/16 07:59:54;;;;;;;37.70;22.87;;;;;;;4.55;97.94;100804.91;5528222;32;32806;-83
2022/03/16 08:03:01;;;;;;;39.70;23.42;;;;;;;4.39;98.80;100803.44;5532848;32;34134;-84
2022/03/16 08:06:05;;;;;;;37.80;23.92;;;;;;;4.31;100.00;100793.94;5551543;32;34060;-85
2022/03/16 08:09:08;;;;;;;37.40;23.75;;;;;;;4.51;100.00;100797.09;5527372;32;34921;-84
2022/03/16 08:12:11;;;;;;;40.55;24.05;;;;;;;4.69;100.00;100803.78;5522778;32;34015;-84
2022/03/16 08:15:14;;;;;;;40.15;24.50;;;;;;;4.56;100.00;100801.38;5513802;32;33945;-84
2022/03/16 08:18:17;;;;;;;42.15;24.52;;;;;;;4.75;100.00;100802.78;5524217;32;33704;-83
2022/03/16 08:21:19;;;;;;;38.70;24.08;;;;;;;4.59;100.00;100798.69;5522705;32;34037;-86
2022/03/16 08:24:22;;;;;;;37.78;24.08;;;;;;;4.59;100.00;100809.19;5518726;32;33830;-84
2022/03/16 08:27:45;;;;;;;38.95;23.80;;;;;;;4.76;100.00;100810.66;5525172;32;34555;-83
2022/03/16 08:30:47;;;;;;;36.38;23.25;;;;;;;4.83;100.00;100817.53;5527236;32;34768;-83
2022/03/16 08:33:51;;;;;;;37.70;23.55;;;;;;;4.77;100.00;100815.00;5527787;32;33902;-82
2022/03/16 08:36:54;;;;;;;36.10;23.80;;;;;;;4.69;100.00;100811.66;5536918;32;34327;-83
2022/03/16 08:39:56;;;;;;;39.88;24.20;;;;;;;4.74;100.00;100819.47;5535081;32;33965;-82
2022/03/16 08:42:59;;;;;;;41.95;24.77;;;;;;;4.69;100.00;100817.78;5536099;32;34008;-82
2022/03/16 08:46:03;;;;;;;41.60;24.77;;;;;;;4.72;100.00;100836.13;5526384;32;34614;-82
2022/03/16 08:49:07;;;;;;;42.65;24.48;;;;;;;4.62;100.00;100838.97;5523490;32;34734;-84
2022/03/16 08:52:12;;;;;;;42.15;24.73;;;;;;;4.65;100.00;100836.25;5528943;32;34230;-84
2022/03/16 08:55:16;;;;;;;46.03;24.17;;;;;;;4.64;100.00;100843.28;5521943;32;34020;-83
2022/03/16 08:58:18;;;;;;;40.97;23.20;;;;;;;4.46;99.93;100854.97;5530898;32;33969;-83
2022/03/16 09:01:21;;;;;;;38.10;22.98;;;;;;;4.43;99.15;100865.53;5513685;32;34139;-84
2022/03/16 09:04:24;;;;;;;38.40;23.23;;;;;;;4.41;98.60;100864.69;5531963;32;34350;-85
2022/03/16 09:07:28;;;;;;;40.12;23.55;;;;;;;4.34;98.38;100869.19;5530338;32;34623;-85
2022/03/16 09:10:31;;;;;;;36.78;23.65;;;;;;;4.40;98.90;100869.09;5517637;32;34136;-88
2022/03/16 09:13:34;;;;;;;40.30;23.23;;;;;;;4.37;99.88;100876.16;5525589;32;34859;-88
2022/03/16 09:16:37;;;;;;;38.97;25.40;;;;;;;4.46;99.80;100878.63;5535241;32;34614;-88
2022/03/16 09:19:40;;;;;;;38.83;25.12;;;;;;;4.37;100.00;100874.37;5523665;32;35221;-88
2022/03/16 09:22:43;;;;;;;46.10;25.50;;;;;;;4.35;100.00;100883.16;5517381;32;33780;-86
2022/03/16 09:25:46;;;;;;;41.35;25.37;;;;;;;4.14;100.00;100877.37;5535334;32;33554;-85
2022/03/16 09:28:49;;;;;;;41.80;24.75;;;;;;;4.25;100.00;100879.81;5519487;32;33847;-84
2022/03/16 09:31:52;;;;;;;38.90;24.00;;;;;;;4.26;100.00;100885.06;5517730;32;33845;-84
2022/03/16 09:34:55;;;;;;;37.08;23.58;;;;;;;4.12;100.00;100893.12;5519782;32;34065;-83
2022/03/16 09:37:58;;;;;;;37.65;23.45;;;;;;;4.09;100.00;100898.44;5514128;32;33942;-84
2022/03/16 09:41:02;;;;;;;35.35;22.85;;;;;;;4.08;100.00;100904.59;5517848;32;33884;-83
2022/03/16 09:44:06;;;;;;;38.10;23.83;;;;;;;4.12;100.00;100900.16;5525747;32;33946;-82
2022/03/16 09:47:11;;;;;;;33.50;23.02;;;;;;;4.23;100.00;100907.87;5520848;32;33771;-85
2022/03/16 09:50:19;;;;;;;34.92;21.73;;;;;;;4.25;100.00;100908.72;5514417;32;33774;-84
2022/03/16 09:53:28;;;;;;;35.15;22.73;;;;;;;4.26;100.00;100910.44;5528036;32;34107;-83
2022/03/16 09:56:33;;;;;;;36.88;23.08;;;;;;;4.32;100.00;100905.97;5529239;32;34232;-84
2022/03/16 09:59:37;;;;;;;36.22;23.73;;;;;;;4.24;100.00;100917.47;5527092;32;34082;-83
2022/03/16 10:02:40;;;;;;;38.15;23.50;;;;;;;4.21;100.00;100920.16;5532885;32;33699;-84
2022/03/16 10:05:46;;;;;;;35.42;23.62;;;;;;;4.47;100.00;100916.28;5526599;32;33980;-84
2022/03/16 10:15:35;;;;;;;43.97;25.42;;;;;;;4.48;100.00;100918.84;5523501;32;34044;-87
2022/03/16 10:18:38;;;;;;;40.20;25.48;;;;;;;4.47;100.00;100922.38;5519162;32;34019;-86
2022/03/16 10:22:04;;;;;;;41.40;25.23;;;;;;;4.62;100.00;100920.44;5520039;32;34032;-86
2022/03/16 10:25:08;;;;;;;39.13;24.65;;;;;;;4.69;100.00;100927.31;5533614;32;33719;-85
2022/03/16 10:28:32;;;;;;;41.22;25.55;;;;;;;4.68;100.00;100925.59;5536782;32;34771;-86
2022/03/16 10:31:35;;;;;;;42.88;25.52;;;;;;;4.67;100.00;100931.72;5541263;32;34187;-84
2022/03/16 10:34:49;;;;;;;43.20;26.75;;;;;;;4.67;100.00;100924.69;5530333;32;32975;-85
2022/03/16 10:38:06;;;;;;;45.35;26.12;;;;;;;4.66;100.00;100930.84;5535194;32;34540;-85
2022/03/16 10:48:25;;;;;;;39.83;25.98;;;;;;;4.75;100.00;100935.09;5517727;32;33865;-85
2022/03/16 10:51:29;;;;;;;39.50;23.17;;;;;;;4.92;100.00;100944.47;5525684;32;34645;-87
2022/03/16 10:54:51;;;;;;;33.92;22.23;;;;;;;4.85;100.00;100935.81;5520037;32;34799;-84
2022/03/16 10:57:54;;;;;;;37.25;22.27;;;;;;;4.92;100.00;100942.69;5531760;32;33921;-84
2022/03/16 11:00:58;;;;;;;33.83;22.05;;;;;;;4.94;100.00;100950.56;5520240;32;34100;-86
2022/03/16 11:04:03;;;;;;;34.53;21.15;;;;;;;5.10;100.00;100954.66;5517609;32;34989;-86
2022/03/16 11:07:06;;;;;;;32.83;21.35;;;;;;;5.39;98.16;100947.12;5535537;32;34069;-91
2022/03/16 11:10:11;;;;;;;34.30;22.62;;;;;;;5.32;97.07;100956.03;5536825;32;34275;-91
2022/03/16 11:13:30;;;;;;;34.25;22.60;;;;;;;5.26;97.47;100959.63;5538477;32;34386;-89
2022/03/16 11:16:34;;;;;;;36.45;23.73;;;;;;;5.23;96.45;100967.59;5530401;32;34524;-86
2022/03/16 11:19:38;;;;;;;35.60;23.38;;;;;;;5.33;95.42;100965.66;5541938;32;34027;-85
2022/03/16 11:26:48;;;;;;;36.50;23.25;;;;;;;5.12;95.97;100975.66;5526922;32;33706;-84
2022/03/16 11:30:06;;;;;;;39.38;24.95;;;;;;;5.26;94.85;100972.78;5533041;32;34179;-85
2022/03/16 11:33:12;;;;;;;35.70;23.77;;;;;;;5.34;93.93;100978.78;5539335;32;35197;-83
2022/03/16 11:36:34;;;;;;;36.22;23.23;;;;;;;5.48;94.35;100972.41;5519406;32;34736;-86
2022/03/16 11:39:46;;;;;;;35.58;23.33;;;;;;;5.97;91.78;100973.19;5512777;32;33983;-84
2022/03/16 11:43:05;;;;;;;36.92;23.15;;;;;;;5.96;90.92;100976.72;5514814;32;33929;-86
2022/03/16 11:46:27;;;;;;;35.13;22.60;;;;;;;5.84;91.11;100976.97;5520078;32;33983;-91
2022/03/16 11:49:30;;;;;;;34.63;20.88;;;;;;;6.28;90.24;100982.25;5523076;32;34337;-86
2022/03/16 11:53:00;;;;;;;31.27;22.10;;;;;;;6.51;88.56;100972.94;5531496;32;35216;-87
2022/03/16 11:56:36;;;;;;;28.58;20.12;;;;;;;7.40;84.59;100971.63;5535735;32;34340;-88
2022/03/16 11:59:44;;;;;;;30.90;20.15;;;;;;;8.00;81.15;100971.69;5513972;32;33953;-86
2022/03/16 12:02:59;;;;;;;30.30;20.15;;;;;;;7.10;82.73;100984.72;5532419;32;33815;-86
2022/03/16 12:06:03;;;;;;;28.83;19.80;;;;;;;6.78;83.71;100981.97;5534001;32;35327;-87
2022/03/16 12:09:06;;;;;;;29.05;20.33;;;;;;;6.69;83.60;100984.84;5533576;32;34610;-87
2022/03/16 12:15:42;;;;;;;32.95;21.52;;;;;;;6.12;87.27;100995.72;5536232;32;34844;-86
2022/03/16 12:18:46;;;;;;;31.45;21.05;;;;;;;6.16;87.97;101005.31;5538743;32;33911;-87
2022/03/16 12:22:03;;;;;;;32.08;21.87;;;;;;;6.02;89.10;101009.94;5527452;32;35207;-92
2022/03/16 12:25:27;;;;;;;31.15;21.73;;;;;;;6.19;87.78;101002.59;5525375;32;33952;-85
2022/03/16 12:32:00;;;;;;;29.55;21.12;;;;;;;6.37;87.09;101008.38;5523451;32;33524;-86
2022/03/16 12:35:04;;;;;;;31.33;21.85;;;;;;;6.35;86.62;101023.37;5521702;32;34354;-86
2022/03/16 12:38:10;;;;;;;27.45;20.00;;;;;;;6.30;86.76;101017.31;5528592;32;34023;-87
2022/03/16 12:44:45;;;;;;;28.20;18.87;;;;;;;6.50;83.35;101019.53;5530082;32;33893;-85
2022/03/16 12:48:03;;;;;;;27.98;18.80;;;;;;;6.69;81.60;101022.59;5532217;32;34616;-86
2022/03/16 12:51:06;;;;;;;28.90;18.52;;;;;;;6.80;81.97;101018.84;5530452;32;33991;-87
2022/03/16 12:54:14;;;;;;;26.80;17.33;;;;;;;6.98;80.25;101015.75;5527309;32;35056;-87
2022/03/16 12:57:17;;;;;;;25.10;17.12;;;;;;;7.08;78.89;101026.06;5534289;32;33992;-85
2022/03/16 13:00:20;;;;;;;25.60;15.68;;;;;;;7.32;78.18;101021.09;5535855;32;34899;-85
2022/03/16 13:03:24;;;;;;;24.70;16.55;;;;;;;7.08;78.24;101023.44;5532541;32;34467;-84
2022/03/16 13:06:33;;;;;;;24.30;16.35;;;;;;;7.35;77.67;101029.78;5535532;32;34779;-85
2022/03/16 13:09:40;;;;;;;24.83;16.45;;;;;;;7.43;77.09;101028.75;5532426;32;34146;-85
2022/03/16 13:12:56;;;;;;;24.95;15.90;;;;;;;7.52;76.76;101025.84;5533739;32;34542;-90
2022/03/16 13:16:01;;;;;;;23.20;15.90;;;;;;;7.60;75.99;101037.06;5534183;32;33442;-86
2022/03/16 13:19:05;;;;;;;23.70;15.85;;;;;;;7.44;76.19;101031.34;5532391;32;34213;-85
2022/03/16 13:22:14;;;;;;;25.80;16.65;;;;;;;7.92;75.29;101030.06;5532467;32;34561;-86
2022/03/16 13:25:17;;;;;;;20.37;15.38;;;;;;;8.25;74.67;101028.25;5532272;32;34464;-85
2022/03/16 13:28:21;;;;;;;19.67;14.80;;;;;;;8.31;72.75;101028.06;5527449;32;34756;-85
2022/03/16 13:31:26;;;;;;;19.37;14.07;;;;;;;8.36;72.28;101034.09;5537363;32;34227;-86
2022/03/16 13:34:33;;;;;;;18.73;13.82;;;;;;;8.12;71.57;101038.31;5523238;32;34077;-86
2022/03/16 13:37:36;;;;;;;19.73;14.07;;;;;;;8.42;71.14;101043.59;5535729;32;34184;-86
2022/03/16 13:40:42;;;;;;;18.45;13.60;;;;;;;8.28;71.46;101042.25;5537576;32;35316;-87
2022/03/16 13:43:45;;;;;;;16.67;12.65;;;;;;;8.26;70.73;101054.66;5536668;32;35120;-86
2022/03/16 13:46:48;;;;;;;16.98;12.93;;;;;;;8.18;71.56;101046.06;5537635;32;34066;-86
2022/03/16 13:49:55;;;;;;;16.77;12.50;;;;;;;8.46;70.08;101043.47;5538588;32;34315;-85
2022/03/16 13:53:17;;;;;;;15.15;11.63;;;;;;;8.70;68.55;101050.75;5540971;32;34719;-85
2022/03/16 13:56:24;;;;;;;14.48;11.50;;;;;;;8.67;68.34;101057.00;5533980;32;34436;-87
2022/03/16 13:59:28;;;;;;;12.80;10.52;;;;;;;9.07;66.50;101060.16;5539020;32;34190;-86
2022/03/16 14:02:39;;;;;;;16.62;11.63;;;;;;;9.32;66.75;101061.13;5544097;31;35129;-86
2022/03/16 14:05:43;;;;;;;14.02;10.35;;;;;;;9.69;63.24;101060.75;5543075;32;33505;-85
2022/03/16 14:08:50;;;;;;;12.95;9.52;;;;;;;9.12;64.47;101060.00;5536378;32;34087;-86
2022/03/16 14:11:55;;;;;;;10.75;9.00;;;;;;;8.72;65.98;101070.94;5536793;32;34647;-87
2022/03/16 14:15:06;;;;;;;15.15;9.77;;;;;;;8.45;65.50;101078.75;5537664;32;34763;-86
2022/03/16 14:18:13;;;;;;;10.52;9.25;;;;;;;8.57;64.96;101077.56;5534623;32;35338;-86
2022/03/16 14:21:16;;;;;;;11.77;9.40;;;;;;;8.68;64.32;101084.28;5553113;32;34384;-85
2022/03/16 14:24:20;;;;;;;11.85;9.40;;;;;;;8.90;64.03;101084.50;5563567;32;33786;-85
2022/03/16 14:27:26;;;;;;;10.40;8.95;;;;;;;8.58;64.85;101078.41;5562106;32;34516;-89
2022/03/16 14:30:37;;;;;;;9.90;8.60;;;;;;;8.34;65.22;101099.34;5557611;32;34286;-92
2022/03/16 14:33:40;;;;;;;9.80;8.80;;;;;;;8.48;64.83;101098.97;5558172;32;33972;-88
2022/03/16 14:36:44;;;;;;;9.43;8.05;;;;;;;8.36;65.17;101095.75;5564614;32;34811;-86
2022/03/16 14:40:06;;;;;;;9.05;8.05;;;;;;;8.18;66.10;101105.09;5564825;32;34728;-87
2022/03/16 14:43:10;;;;;;;10.25;8.38;;;;;;;7.96;66.42;101104.81;5557406;32;34311;-86
2022/03/16 14:46:14;;;;;;;9.65;8.52;;;;;;;7.98;66.92;101108.28;5558428;32;34923;-88
2022/03/16 14:49:18;;;;;;;9.38;8.35;;;;;;;8.56;66.00;101112.84;5555994;32;34478;-88
2022/03/16 14:52:21;;;;;;;13.48;8.75;;;;;;;8.36;65.39;101113.41;5555409;32;34812;-87
2022/03/16 14:55:28;;;;;;;10.38;8.85;;;;;;;8.26;66.07;101115.44;5556427;32;33670;-86
2022/03/16 14:58:31;;;;;;;10.73;9.10;;;;;;;7.97;66.80;101119.75;5558225;32;34454;-86
2022/03/16 15:01:35;;;;;;;11.23;8.50;;;;;;;8.44;66.23;101119.34;5539790;32;33846;-86
2022/03/16 15:04:38;;;;;;;9.90;8.43;;;;;;;8.30;65.92;101124.16;5539241;32;34265;-86
2022/03/16 15:07:41;;;;;;;12.52;9.10;;;;;;;8.11;66.68;101119.38;5572772;32;34196;-85
2022/03/16 15:10:44;;;;;;;9.82;8.82;;;;;;;8.43;66.21;101116.72;5572446;32;33779;-85
2022/03/16 15:13:47;;;;;;;10.60;9.15;;;;;;;8.76;65.66;101119.34;5572331;32;34473;-85
2022/03/16 15:16:51;;;;;;;9.40;8.40;;;;;;;8.77;64.75;101118.41;5574003;32;34093;-85
2022/03/16 15:19:55;;;;;;;10.27;8.40;;;;;;;8.72;64.60;101120.34;5573601;32;35658;-86
2022/03/16 15:22:58;;;;;;;10.38;8.20;;;;;;;8.49;65.31;101117.44;5574256;32;34115;-86
2022/03/16 15:26:00;;;;;;;9.55;8.13;;;;;;;8.23;66.37;101126.97;5574694;32;33743;-86
2022/03/16 15:29:03;;;;;;;9.70;8.80;;;;;;;8.34;64.95;101120.50;5574096;32;33968;-85
2022/03/16 15:32:08;;;;;;;8.90;8.00;;;;;;;8.04;66.37;101128.41;5569404;32;34154;-85
2022/03/16 15:35:11;;;;;;;9.10;8.20;;;;;;;7.97;67.89;101132.97;5573024;32;33345;-85
2022/03/16 15:38:14;;;;;;;9.93;8.70;;;;;;;7.96;67.10;101136.53;5564441;32;35270;-85
2022/03/16 15:44:39;;;;;;;8.77;7.87;;;;;;;7.83;67.83;101143.88;5549478;32;34332;-85
2022/03/16 15:47:42;;;;;;;9.93;8.45;;;;;;;7.78;67.17;101148.41;5563243;32;34496;-86
2022/03/16 15:50:45;;;;;;;11.18;8.50;;;;;;;7.89;67.51;101151.66;5554452;32;33503;-85
2022/03/16 15:53:50;;;;;;;9.38;8.48;;;;;;;7.68;68.05;101161.00;5555534;32;34707;-86
2022/03/16 15:56:55;;;;;;;9.35;8.23;;;;;;;7.45;68.99;101161.56;5552615;32;33714;-86
2022/03/16 15:59:58;;;;;;;10.43;9.32;;;;;;;7.41;69.52;101158.97;5546682;32;34192;-85
2022/03/16 16:03:02;;;;;;;10.98;9.00;;;;;;;7.33;69.98;101166.22;5549212;32;33717;-89
2022/03/16 16:06:09;;;;;;;11.43;9.00;;;;;;;7.48;69.56;101159.72;5553211;32;35607;-89
2022/03/16 16:09:13;;;;;;;9.55;8.55;;;;;;;7.28;70.18;101158.44;5543879;32;35305;-91
2022/03/16 16:12:16;;;;;;;13.95;9.52;;;;;;;7.28;70.67;101168.09;5539609;32;35053;-86
2022/03/16 16:15:19;;;;;;;10.30;8.93;;;;;;;7.41;70.04;101168.69;5536609;32;34465;-86
2022/03/16 16:18:22;;;;;;;10.40;9.30;;;;;;;7.24;70.39;101169.94;5535081;32;34504;-86
2022/03/16 16:21:26;;;;;;;11.50;9.30;;;;;;;7.22;71.21;101171.75;5536431;32;34124;-85
2022/03/16 16:24:29;;;;;;;10.63;9.05;;;;;;;7.21;71.40;101175.31;5536463;32;34640;-85
2022/03/16 16:27:32;;;;;;;11.32;9.35;;;;;;;7.24;71.29;101174.38;5535207;32;34295;-85
2022/03/16 16:30:35;;;;;;;13.98;9.40;;;;;;;7.16;71.37;101182.47;5535792;32;33690;-86
